Time;durP1;ratioP1;P1;durP2;ratioP2;P2;SDS_P1;SDS_P2;PMS_P1;PMS_P2;Temp;Humidity;BMP_temperature;BMP_pressure;BME280_temperature;BME280_humidity;BME280_pressure;Samples;Min_cycle;Max_cycle;Signal;HPM_P1;HPM_P2
2023/01/06 00:01:44;;;;;;;5.70;2.80;;;3.80;99.90;;;;;;4391421;28;654607;-70
2023/01/06 00:04:32;;;;;;;6.00;1.67;;;3.80;99.90;;;;;;4395119;28;655110;-70
2023/01/06 00:07:19;;;;;;;5.67;2.00;;;3.80;99.90;;;;;;4422957;28;654752;-70
2023/01/06 00:10:09;;;;;;;3.37;1.50;;;3.80;99.90;;;;;;4401666;28;654407;-71
2023/01/06 00:12:56;;;;;;;4.00;1.60;;;3.80;99.90;;;;;;4390705;28;654514;-70
2023/01/06 00:15:43;;;;;;;6.70;2.27;;;3.80;99.90;;;;;;4423473;28;654777;-70
2023/01/06 00:18:30;;;;;;;4.07;1.70;;;3.80;99.90;;;;;;4396418;28;654327;-71
2023/01/06 00:21:17;;;;;;;3.57;1.57;;;3.80;99.90;;;;;;4409368;28;655087;-70
2023/01/06 00:24:06;;;;;;;5.70;1.47;;;3.80;99.90;;;;;;4413747;28;654145;-70
2023/01/06 00:26:54;;;;;;;5.00;1.33;;;3.80;99.90;;;;;;4423167;28;657132;-71
2023/01/06 00:29:42;;;;;;;5.07;1.60;;;3.80;99.90;;;;;;4388989;28;654685;-70
2023/01/06 00:32:29;;;;;;;3.37;1.43;;;3.70;99.90;;;;;;4404359;28;655883;-70
2023/01/06 00:35:16;;;;;;;4.07;1.70;;;3.70;99.90;;;;;;4388756;28;654846;-71
2023/01/06 00:38:03;;;;;;;6.10;2.07;;;3.70;99.90;;;;;;4399975;28;655121;-70
2023/01/06 00:40:51;;;;;;;6.90;1.80;;;3.60;99.90;;;;;;4394529;28;654262;-70
2023/01/06 00:43:39;;;;;;;1.67;1.00;;;3.70;99.90;;;;;;4420646;28;655496;-70
2023/01/06 00:46:27;;;;;;;2.67;1.20;;;3.70;99.90;;;;;;4399910;28;654476;-70
2023/01/06 00:49:15;;;;;;;3.63;1.20;;;3.70;99.90;;;;;;4426911;28;653720;-71
2023/01/06 00:52:02;;;;;;;2.70;1.23;;;3.70;99.90;;;;;;4423742;28;654210;-70
2023/01/06 00:54:50;;;;;;;3.03;1.43;;;3.70;99.90;;;;;;4406350;28;654632;-70
2023/01/06 00:57:38;;;;;;;2.40;1.43;;;3.60;99.90;;;;;;4426098;28;654369;-70
2023/01/06 01:00:27;;;;;;;3.60;1.40;;;3.60;99.90;;;;;;4406462;28;655020;-70
2023/01/06 01:03:14;;;;;;;6.53;1.57;;;3.50;99.90;;;;;;4397762;28;654211;-70
2023/01/06 01:06:01;;;;;;;6.83;1.43;;;3.50;99.90;;;;;;4386339;28;654451;-70
2023/01/06 01:08:52;;;;;;;3.57;1.27;;;3.50;99.90;;;;;;4406058;28;655120;-70
2023/01/06 01:14:46;;;;;;;3.80;1.67;;;3.50;99.90;;;;;;4389772;28;654899;-70
2023/01/06 01:17:34;;;;;;;5.70;1.80;;;3.40;99.90;;;;;;4385756;28;655061;-70
2023/01/06 01:20:22;;;;;;;3.97;1.63;;;3.40;99.90;;;;;;4382699;28;654782;-70
2023/01/06 01:23:09;;;;;;;5.03;1.70;;;3.40;99.90;;;;;;4421395;28;654417;-70
2023/01/06 01:25:56;;;;;;;5.07;1.70;;;3.40;99.90;;;;;;4384528;28;654734;-70
2023/01/06 01:28:43;;;;;;;3.20;1.87;;;3.40;99.90;;;;;;4411417;28;655231;-70
2023/01/06 01:31:31;;;;;;;5.90;1.73;;;3.40;99.90;;;;;;4399259;28;654754;-71
2023/01/06 01:34:20;;;;;;;7.00;1.80;;;3.40;99.90;;;;;;4407306;28;655497;-70
2023/01/06 01:37:07;;;;;;;3.60;1.67;;;3.50;99.90;;;;;;4380114;28;654778;-70
2023/01/06 01:39:54;;;;;;;3.70;1.73;;;3.50;99.90;;;;;;4412334;28;653939;-70
2023/01/06 01:42:41;;;;;;;4.27;1.77;;;3.40;99.90;;;;;;4394109;28;655115;-71
2023/01/06 01:45:29;;;;;;;5.23;1.60;;;3.30;99.90;;;;;;4406297;28;654703;-70
2023/01/06 01:48:20;;;;;;;3.90;1.53;;;3.30;99.90;;;;;;4383406;28;654885;-70
2023/01/06 01:51:12;;;;;;;5.53;1.70;;;3.20;99.90;;;;;;4391326;28;654853;-71
2023/01/06 01:54:01;;;;;;;4.10;1.73;;;3.20;99.90;;;;;;4396757;28;654396;-70
2023/01/06 01:56:51;;;;;;;2.65;1.40;;;3.20;99.90;;;;;;4386313;28;655404;-70
2023/01/06 01:59:39;;;;;;;2.80;1.10;;;3.20;99.90;;;;;;4392752;28;656091;-70
2023/01/06 02:02:26;;;;;;;4.90;1.53;;;3.30;99.90;;;;;;4390676;28;654445;-71
2023/01/06 02:05:15;;;;;;;2.50;1.50;;;3.20;99.90;;;;;;4427740;28;655142;-70
2023/01/06 02:08:07;;;;;;;4.47;1.53;;;3.20;99.90;;;;;;4405343;28;654807;-70
2023/01/06 02:10:55;;;;;;;2.97;1.73;;;3.10;99.90;;;;;;4385436;28;654619;-71
2023/01/06 02:13:43;;;;;;;3.40;1.50;;;3.10;99.90;;;;;;4411597;28;655477;-70
2023/01/06 02:16:33;;;;;;;5.20;1.67;;;3.10;99.90;;;;;;4389988;28;654902;-70
2023/01/06 02:19:46;;;;;;;4.38;1.83;;;3.10;99.90;;;;;;4391622;28;654092;-70
2023/01/06 02:23:08;;;;;;;3.13;1.60;;;3.10;99.90;;;;;;4386505;28;654396;-70
2023/01/06 02:26:28;;;;;;;5.93;1.70;;;3.10;99.90;;;;;;4371273;28;655157;-70
2023/01/06 02:29:43;;;;;;;4.33;1.70;;;3.10;99.90;;;;;;4373785;28;654692;-71
2023/01/06 02:32:48;;;;;;;2.40;1.37;;;3.10;99.90;;;;;;4373301;28;654859;-71
2023/01/06 02:35:42;;;;;;;5.93;1.73;;;3.10;99.90;;;;;;4368588;28;655063;-70
2023/01/06 02:38:37;;;;;;;4.47;1.83;;;3.10;99.90;;;;;;4388903;28;655059;-70
2023/01/06 02:41:31;;;;;;;3.70;1.57;;;3.10;99.90;;;;;;4405524;28;654050;-70
2023/01/06 02:44:20;;;;;;;7.53;1.83;;;3.10;99.90;;;;;;4383908;28;655188;-71
2023/01/06 02:47:12;;;;;;;5.57;2.00;;;3.00;99.90;;;;;;4388580;28;655183;-70
2023/01/06 02:50:06;;;;;;;4.93;1.80;;;3.00;99.90;;;;;;4392160;28;654380;-70
2023/01/06 02:52:55;;;;;;;4.87;2.00;;;3.00;99.90;;;;;;4388949;28;654804;-70
2023/01/06 02:55:44;;;;;;;4.50;1.97;;;3.00;99.90;;;;;;4390772;28;654591;-70
2023/01/06 02:58:33;;;;;;;4.50;1.77;;;3.00;99.90;;;;;;4391369;28;654703;-70
2023/01/06 03:01:22;;;;;;;4.10;1.80;;;2.90;99.90;;;;;;4402618;28;654982;-70
2023/01/06 03:04:18;;;;;;;2.97;1.77;;;2.90;99.90;;;;;;4417363;28;654839;-69
2023/01/06 03:07:07;;;;;;;3.63;2.10;;;2.80;99.90;;;;;;4382405;28;654851;-70
2023/01/06 03:09:54;;;;;;;4.07;2.03;;;2.80;99.90;;;;;;4423371;28;654283;-70
2023/01/06 03:12:43;;;;;;;4.10;1.80;;;2.80;99.90;;;;;;4394183;28;654683;-70
2023/01/06 03:15:30;;;;;;;6.70;1.90;;;2.80;99.90;;;;;;4409976;28;654604;-70
2023/01/06 03:18:17;;;;;;;2.83;1.77;;;2.80;99.90;;;;;;4417189;28;655207;-70
2023/01/06 03:21:07;;;;;;;4.47;2.13;;;2.80;99.90;;;;;;4410780;28;654680;-70
2023/01/06 03:23:56;;;;;;;6.10;2.10;;;2.70;99.90;;;;;;4334764;28;654296;-71
2023/01/06 03:26:43;;;;;;;7.60;2.33;;;2.70;99.90;;;;;;4212263;28;655770;-71
2023/01/06 03:29:30;;;;;;;7.50;2.90;;;2.70;99.90;;;;;;4299581;28;654609;-71
2023/01/06 03:32:20;;;;;;;4.83;2.60;;;2.70;99.90;;;;;;4406678;28;655036;-70
2023/01/06 03:35:24;;;;;;;7.25;2.85;;;2.80;99.90;;;;;;4381849;28;655096;-70
2023/01/06 03:38:14;;;;;;;5.77;2.73;;;2.70;99.90;;;;;;4394203;28;654784;-70
2023/01/06 03:41:07;;;;;;;7.03;2.93;;;2.70;99.90;;;;;;4408175;28;655737;-70
2023/01/06 03:43:57;;;;;;;7.03;2.73;;;2.70;99.90;;;;;;4397864;28;655266;-70
2023/01/06 03:46:47;;;;;;;7.20;3.03;;;2.70;99.90;;;;;;4395329;28;655973;-70
2023/01/06 03:49:36;;;;;;;5.73;2.70;;;2.80;99.90;;;;;;4384768;28;656191;-70
2023/01/06 03:52:25;;;;;;;6.50;3.07;;;2.70;99.90;;;;;;4384612;28;655950;-70
2023/01/06 03:55:14;;;;;;;7.10;2.97;;;2.70;99.90;;;;;;4379746;28;656030;-70
2023/01/06 03:58:03;;;;;;;9.97;3.37;;;2.70;99.90;;;;;;4393054;28;655806;-70
2023/01/06 04:00:50;;;;;;;7.63;2.87;;;2.70;99.90;;;;;;4408932;28;655971;-70
2023/01/06 04:03:37;;;;;;;6.73;3.23;;;2.70;99.90;;;;;;4406894;28;656559;-70
2023/01/06 04:06:25;;;;;;;6.33;3.27;;;2.70;99.90;;;;;;4403390;28;655286;-71
2023/01/06 04:09:12;;;;;;;6.63;3.10;;;2.80;99.90;;;;;;4419016;28;657252;-70
2023/01/06 04:15:08;;;;;;;7.33;3.27;;;2.70;99.90;;;;;;4373349;28;655787;-70
2023/01/06 04:17:56;;;;;;;4.77;2.57;;;2.60;99.90;;;;;;4395119;28;655420;-70
2023/01/06 04:20:43;;;;;;;7.40;3.10;;;2.60;99.90;;;;;;4407200;28;655284;-70
2023/01/06 04:23:31;;;;;;;8.27;3.40;;;2.60;99.90;;;;;;4391540;28;655083;-70
2023/01/06 04:26:20;;;;;;;4.93;2.63;;;2.60;99.90;;;;;;4403649;28;655677;-71
2023/01/06 04:29:07;;;;;;;6.13;3.30;;;2.60;99.90;;;;;;4402702;28;656325;-70
2023/01/06 04:31:57;;;;;;;7.37;3.33;;;2.70;99.90;;;;;;4409697;28;657339;-70
2023/01/06 04:34:44;;;;;;;6.77;3.33;;;2.60;99.90;;;;;;4410188;28;654881;-69
2023/01/06 04:37:31;;;;;;;7.80;3.27;;;2.60;1.00;;;;;;4390082;28;655916;-70
2023/01/06 04:40:18;;;;;;;8.33;3.27;;;2.60;99.90;;;;;;4411298;28;655139;-70
2023/01/06 04:43:05;;;;;;;9.23;3.30;;;2.60;1.00;;;;;;4383162;28;655990;-71
2023/01/06 04:45:53;;;;;;;6.93;3.10;;;2.60;1.00;;;;;;4396100;28;655791;-70
2023/01/06 04:48:42;;;;;;;7.93;3.13;;;2.50;1.00;;;;;;4398210;28;654471;-71
2023/01/06 04:51:29;;;;;;;6.93;3.70;;;2.60;1.00;;;;;;4407357;28;655257;-70
2023/01/06 04:54:17;;;;;;;6.93;3.23;;;2.60;1.00;;;;;;4364383;28;655671;-70
2023/01/06 04:57:04;;;;;;;6.40;3.30;;;2.60;99.90;;;;;;4391697;28;654719;-70
2023/01/06 04:59:51;;;;;;;9.70;3.50;;;2.60;99.90;;;;;;4390428;28;655529;-70
2023/01/06 05:02:39;;;;;;;7.47;3.40;;;2.50;99.90;;;;;;4407063;28;655713;-70
2023/01/06 05:05:27;;;;;;;7.80;3.90;;;2.60;99.90;;;;;;4376584;28;655974;-70
2023/01/06 05:08:15;;;;;;;8.57;3.97;;;2.60;99.90;;;;;;4408671;28;655094;-70
2023/01/06 05:11:02;;;;;;;9.20;3.43;;;2.60;99.90;;;;;;4385947;28;655842;-70
2023/01/06 05:13:49;;;;;;;7.85;3.45;;;2.60;99.90;;;;;;4395798;28;655044;-70
2023/01/06 05:16:37;;;;;;;7.13;3.83;;;2.60;99.90;;;;;;4382224;28;656004;-70
2023/01/06 05:19:24;;;;;;;9.60;3.93;;;2.50;99.90;;;;;;4416979;28;655361;-70
2023/01/06 05:22:13;;;;;;;7.63;4.07;;;2.50;99.90;;;;;;4393619;28;655581;-70
2023/01/06 05:25:00;;;;;;;11.33;4.30;;;2.60;99.90;;;;;;4408022;28;655521;-70
2023/01/06 05:27:47;;;;;;;9.60;3.80;;;2.50;99.90;;;;;;4409349;28;656720;-70
2023/01/06 05:30:36;;;;;;;11.63;4.53;;;2.50;99.90;;;;;;4398205;28;655483;-71
2023/01/06 05:33:23;;;;;;;9.87;4.37;;;2.40;99.90;;;;;;4420634;28;657493;-70
2023/01/06 05:36:11;;;;;;;10.07;4.10;;;2.30;99.90;;;;;;4388987;28;655656;-70
2023/01/06 05:39:00;;;;;;;9.03;4.50;;;2.30;99.90;;;;;;4397974;28;656922;-70
2023/01/06 05:41:47;;;;;;;9.77;4.50;;;2.10;99.90;;;;;;4383470;28;655941;-70
2023/01/06 05:44:34;;;;;;;7.13;4.60;;;2.10;99.90;;;;;;4410465;28;655298;-70
2023/01/06 05:47:22;;;;;;;12.03;5.90;;;2.10;99.90;;;;;;4369805;28;655876;-70
2023/01/06 05:50:09;;;;;;;15.18;6.05;;;2.00;99.90;;;;;;4383772;28;656931;-70
2023/01/06 05:52:56;;;;;;;14.68;6.30;;;1.90;99.90;;;;;;4385418;28;657034;-70
2023/01/06 05:55:45;;;;;;;13.33;6.53;;;1.90;99.90;;;;;;4414196;28;657315;-69
2023/01/06 05:58:32;;;;;;;14.23;7.23;;;1.90;99.90;;;;;;4377814;28;658098;-70
2023/01/06 06:01:21;;;;;;;16.33;7.80;;;1.80;99.90;;;;;;4399668;28;657034;-70
2023/01/06 06:04:08;;;;;;;15.57;7.93;;;1.80;99.90;;;;;;4411239;28;657124;-70
2023/01/06 06:06:55;;;;;;;13.67;7.27;;;1.80;99.90;;;;;;4379304;28;656555;-71
2023/01/06 06:09:43;;;;;;;17.57;7.53;;;1.70;99.90;;;;;;4405522;28;658245;-70
2023/01/06 06:12:32;;;;;;;16.20;7.70;;;1.70;99.90;;;;;;4396812;28;657026;-70
2023/01/06 06:15:19;;;;;;;15.63;8.23;;;1.80;99.90;;;;;;4403243;28;656304;-70
2023/01/06 06:18:06;;;;;;;13.47;7.87;;;1.80;99.90;;;;;;4368700;28;656428;-70
2023/01/06 06:20:53;;;;;;;15.40;8.37;;;1.70;99.90;;;;;;4396815;28;657355;-70
2023/01/06 06:23:41;;;;;;;22.17;9.17;;;1.80;99.90;;;;;;4382249;28;656677;-70
2023/01/06 06:26:28;;;;;;;19.13;9.03;;;1.80;99.90;;;;;;4407595;28;657103;-69
2023/01/06 06:29:17;;;;;;;18.77;9.60;;;1.80;99.90;;;;;;4381613;28;656469;-70
2023/01/06 06:32:04;;;;;;;21.93;9.27;;;1.90;99.90;;;;;;4409989;28;656300;-69
2023/01/06 06:34:51;;;;;;;21.47;9.43;;;1.80;99.90;;;;;;4389923;28;656972;-70
2023/01/06 06:37:38;;;;;;;17.80;9.37;;;1.80;99.90;;;;;;4417327;28;656982;-70
2023/01/06 06:40:26;;;;;;;25.03;9.73;;;1.80;99.90;;;;;;4400278;28;656290;-69
2023/01/06 06:43:13;;;;;;;18.52;9.35;;;1.90;99.90;;;;;;4414624;28;657539;-70
2023/01/06 06:46:02;;;;;;;19.50;9.73;;;1.90;99.90;;;;;;4386461;28;657125;-71
2023/01/06 06:48:49;;;;;;;20.80;9.10;;;1.90;99.90;;;;;;4416427;28;656635;-70
2023/01/06 06:51:36;;;;;;;16.67;9.23;;;1.90;99.90;;;;;;4394216;28;656823;-70
2023/01/06 06:54:24;;;;;;;19.70;8.80;;;1.90;99.90;;;;;;4414530;28;657434;-70
2023/01/06 06:57:11;;;;;;;20.73;9.10;;;1.90;99.90;;;;;;4373278;28;656686;-70
2023/01/06 06:59:58;;;;;;;20.03;9.07;;;1.90;99.90;;;;;;4406922;28;657450;-70
2023/01/06 07:02:49;;;;;;;23.77;10.60;;;2.00;99.90;;;;;;4384124;28;656824;-71
2023/01/06 07:05:36;;;;;;;13.37;8.40;;;2.00;99.90;;;;;;4384342;28;657914;-70
2023/01/06 07:08:23;;;;;;;18.60;9.40;;;2.00;99.90;;;;;;4405847;28;657882;-70
2023/01/06 07:11:11;;;;;;;13.90;7.53;;;2.00;99.90;;;;;;4386764;28;656483;-70
2023/01/06 07:13:58;;;;;;;14.17;7.37;;;2.00;99.90;;;;;;4413697;28;657686;-71
2023/01/06 07:16:45;;;;;;;13.40;7.00;;;2.00;99.90;;;;;;4394743;28;657325;-71
2023/01/06 07:19:34;;;;;;;17.87;7.13;;;2.10;99.90;;;;;;4411306;28;657027;-70
2023/01/06 07:22:21;;;;;;;15.33;7.23;;;2.10;99.90;;;;;;4390998;28;656545;-70
2023/01/06 07:25:09;;;;;;;13.52;7.03;;;1.90;99.90;;;;;;4407521;28;657353;-70
2023/01/06 07:27:57;;;;;;;18.17;7.37;;;2.00;99.90;;;;;;4381192;28;656653;-69
2023/01/06 07:30:44;;;;;;;13.23;7.80;;;2.00;99.90;;;;;;4407171;28;656321;-69
2023/01/06 07:33:32;;;;;;;17.57;7.77;;;2.00;99.90;;;;;;4397238;28;657314;-70
2023/01/06 07:36:20;;;;;;;16.70;7.80;;;2.00;99.90;;;;;;4411873;28;656203;-69
2023/01/06 07:39:08;;;;;;;15.30;8.30;;;2.00;99.90;;;;;;4390570;28;656909;-69
2023/01/06 07:41:55;;;;;;;16.57;9.10;;;2.00;99.90;;;;;;4396364;28;656683;-71
2023/01/06 07:44:42;;;;;;;16.73;9.37;;;2.00;99.90;;;;;;4408794;28;656701;-70
2023/01/06 07:47:30;;;;;;;18.40;10.20;;;2.00;99.90;;;;;;4393104;28;656867;-71
2023/01/06 07:50:17;;;;;;;17.63;8.77;;;2.10;99.90;;;;;;4410432;28;658371;-69
2023/01/06 07:53:07;;;;;;;16.43;8.33;;;2.00;99.90;;;;;;4406300;28;656589;-70
2023/01/06 07:55:54;;;;;;;18.00;9.50;;;2.10;99.90;;;;;;4415367;28;656312;-69
2023/01/06 07:58:41;;;;;;;17.53;9.57;;;2.10;99.90;;;;;;4383629;28;656508;-69
2023/01/06 08:01:28;;;;;;;18.30;9.80;;;2.10;99.90;;;;;;4405077;28;657550;-69
2023/01/06 08:04:15;;;;;;;21.23;9.83;;;2.20;99.90;;;;;;4394074;28;656631;-69
2023/01/06 08:07:03;;;;;;;21.53;10.63;;;2.10;99.90;;;;;;4405713;28;657141;-69
2023/01/06 08:09:52;;;;;;;20.63;10.80;;;2.20;99.90;;;;;;4390622;28;658125;-70
2023/01/06 08:12:39;;;;;;;21.30;11.73;;;2.20;99.90;;;;;;4400626;28;657040;-69
2023/01/06 08:15:26;;;;;;;22.23;11.73;;;2.20;99.90;;;;;;4383828;28;657952;-69
2023/01/06 08:18:13;;;;;;;23.87;11.67;;;2.20;99.90;;;;;;4401044;28;657772;-68
2023/01/06 08:21:01;;;;;;;24.97;12.07;;;2.20;99.90;;;;;;4392191;28;657824;-69
2023/01/06 08:23:49;;;;;;;19.60;11.03;;;2.30;99.90;;;;;;4394977;28;658081;-69
2023/01/06 08:26:37;;;;;;;22.87;11.73;;;2.30;99.90;;;;;;4380303;28;657853;-69
2023/01/06 08:29:24;;;;;;;25.87;11.77;;;2.40;99.90;;;;;;4407026;28;657453;-68
2023/01/06 08:32:12;;;;;;;18.67;9.97;;;2.30;99.90;;;;;;4387016;28;658059;-76
2023/01/06 08:34:59;;;;;;;22.97;10.13;;;2.30;99.90;;;;;;4399383;28;655982;-76
2023/01/06 08:37:46;;;;;;;23.37;10.50;;;2.30;99.90;;;;;;4382732;28;657680;-75
2023/01/06 08:40:33;;;;;;;20.25;10.10;;;2.20;99.90;;;;;;4408704;28;657908;-75
2023/01/06 08:43:22;;;;;;;17.13;8.43;;;2.30;99.90;;;;;;4388212;28;657890;-77
2023/01/06 08:46:11;;;;;;;21.63;10.05;;;2.40;99.90;;;;;;4407249;28;659990;-77
2023/01/06 08:48:58;;;;;;;19.67;9.77;;;2.50;99.90;;;;;;4387510;28;657912;-76
2023/01/06 08:51:47;;;;;;;17.40;9.40;;;2.60;99.90;;;;;;4391740;28;656660;-76
2023/01/06 08:54:35;;;;;;;17.57;9.20;;;2.60;99.90;;;;;;4416369;28;656683;-75
2023/01/06 08:57:23;;;;;;;16.33;8.80;;;2.60;99.90;;;;;;4410144;28;657980;-76
2023/01/06 09:00:13;;;;;;;18.97;9.40;;;2.50;99.90;;;;;;4396453;28;656808;-75
2023/01/06 09:03:00;;;;;;;19.37;8.70;;;2.60;99.90;;;;;;4375677;28;657138;-75
2023/01/06 09:05:53;;;;;;;15.13;8.67;;;2.80;99.90;;;;;;4406430;28;657531;-78
2023/01/06 09:08:40;;;;;;;22.30;9.33;;;2.70;99.90;;;;;;4382917;28;656666;-75
2023/01/06 09:11:27;;;;;;;19.03;9.63;;;2.60;99.90;;;;;;4418298;28;657695;-77
2023/01/06 09:14:15;;;;;;;15.57;8.87;;;2.80;99.90;;;;;;4406969;28;656749;-76
2023/01/06 09:17:04;;;;;;;24.10;10.27;;;2.80;99.90;;;;;;4413303;28;657372;-79
2023/01/06 09:19:51;;;;;;;19.33;7.80;;;2.80;99.90;;;;;;4384333;28;657789;-79
2023/01/06 09:22:38;;;;;;;14.13;6.27;;;2.80;99.90;;;;;;4405505;28;656724;-78
2023/01/06 09:25:25;;;;;;;12.50;6.60;;;2.90;99.90;;;;;;4385781;28;656819;-75
2023/01/06 09:28:13;;;;;;;12.77;7.00;;;2.90;99.90;;;;;;4242285;28;656676;-74
2023/01/06 09:31:01;;;;;;;15.30;6.77;;;2.80;99.90;;;;;;4241801;28;656397;-74
2023/01/06 09:33:49;;;;;;;18.23;8.17;;;2.80;99.90;;;;;;4356106;28;657849;-75
2023/01/06 09:36:37;;;;;;;12.83;6.50;;;3.00;99.90;;;;;;4379224;28;656389;-78
2023/01/06 09:39:24;;;;;;;11.57;6.50;;;3.10;99.90;;;;;;4423340;28;655977;-78
2023/01/06 09:42:39;;;;;;;16.87;8.07;;;3.20;99.90;;;;;;4402914;28;656543;-78
2023/01/06 09:45:35;;;;;;;18.43;8.00;;;3.30;99.90;;;;;;4363170;28;656770;-78
2023/01/06 09:48:25;;;;;;;13.20;7.30;;;3.20;99.90;;;;;;4389987;28;656697;-78
2023/01/06 09:51:17;;;;;;;12.33;6.23;;;3.20;99.90;;;;;;4390078;28;657425;-78
2023/01/06 09:54:09;;;;;;;13.40;7.00;;;3.40;99.90;;;;;;4395330;28;657071;-78
2023/01/06 09:57:00;;;;;;;12.07;6.80;;;3.40;99.90;;;;;;4396222;28;656778;-77
2023/01/06 09:59:50;;;;;;;12.10;6.43;;;3.30;99.90;;;;;;4386100;28;656771;-78
2023/01/06 10:02:38;;;;;;;8.10;3.80;;;3.40;99.90;;;;;;4384485;28;657074;-77
2023/01/06 10:05:28;;;;;;;15.17;6.97;;;3.30;99.90;;;;;;4389190;28;655358;-77
2023/01/06 10:08:19;;;;;;;15.53;7.77;;;3.50;99.90;;;;;;4393523;28;656708;-75
2023/01/06 10:11:12;;;;;;;14.70;6.80;;;3.40;99.90;;;;;;4407486;28;656728;-75
2023/01/06 10:14:07;;;;;;;16.37;6.13;;;3.60;99.90;;;;;;4405822;28;657280;-78
2023/01/06 10:17:04;;;;;;;11.03;5.40;;;3.70;99.90;;;;;;4396214;28;656967;-78
2023/01/06 10:19:59;;;;;;;7.83;4.43;;;3.80;99.90;;;;;;4401585;28;656275;-77
2023/01/06 10:22:49;;;;;;;8.50;4.20;;;3.80;99.90;;;;;;4375561;28;655789;-79
2023/01/06 10:25:40;;;;;;;9.93;5.00;;;3.80;99.90;;;;;;4409309;28;655828;-76
2023/01/06 10:28:29;;;;;;;10.23;5.30;;;3.70;99.90;;;;;;4382013;28;655818;-78
2023/01/06 10:31:17;;;;;;;7.97;4.50;;;3.80;99.90;;;;;;4385622;28;656363;-78
2023/01/06 10:34:04;;;;;;;14.97;6.10;;;3.90;99.90;;;;;;4416770;28;655600;-78
2023/01/06 10:36:54;;;;;;;9.87;5.00;;;3.90;99.90;;;;;;4390086;28;656534;-78
2023/01/06 10:39:42;;;;;;;7.77;3.63;;;4.00;99.90;;;;;;4385131;28;655590;-76
2023/01/06 10:45:40;;;;;;;6.87;3.47;;;3.90;99.90;;;;;;4381816;28;655891;-76
2023/01/06 10:48:29;;;;;;;10.10;4.13;;;3.90;99.90;;;;;;4384520;28;656484;-78
2023/01/06 10:51:33;;;;;;;9.60;3.80;;;4.10;99.90;;;;;;4391319;28;656427;-77
2023/01/06 10:54:22;;;;;;;10.60;4.57;;;3.80;99.90;;;;;;4359869;28;656157;-78
2023/01/06 10:57:11;;;;;;;10.27;4.67;;;3.80;99.90;;;;;;4400483;28;656494;-79
2023/01/06 11:00:14;;;;;;;9.80;5.00;;;3.90;99.90;;;;;;4393577;28;657270;-78
2023/01/06 11:03:05;;;;;;;10.60;4.97;;;3.80;99.90;;;;;;4405816;28;655505;-77
2023/01/06 11:06:00;;;;;;;10.63;5.57;;;3.80;99.90;;;;;;4395005;28;657220;-78
2023/01/06 11:08:47;;;;;;;10.57;5.20;;;3.90;99.90;;;;;;4359674;28;656748;-77
2023/01/06 11:11:45;;;;;;;10.87;5.90;;;3.90;99.90;;;;;;4405707;28;657236;-76
2023/01/06 11:14:32;;;;;;;13.30;6.43;;;3.80;99.90;;;;;;4359380;28;657353;-78
2023/01/06 11:17:22;;;;;;;13.77;5.73;;;3.90;99.90;;;;;;4399588;28;656805;-74
2023/01/06 11:20:26;;;;;;;13.70;6.77;;;3.80;99.90;;;;;;4418773;28;656194;-77
2023/01/06 11:23:19;;;;;;;15.33;7.50;;;3.60;99.90;;;;;;4394407;28;657470;-75
2023/01/06 11:26:14;;;;;;;16.60;7.60;;;3.60;99.90;;;;;;4390083;28;656666;-77
2023/01/06 11:29:01;;;;;;;17.40;8.50;;;3.60;99.90;;;;;;4399990;28;658238;-78
2023/01/06 11:31:48;;;;;;;13.83;7.77;;;3.70;99.90;;;;;;4415624;28;657398;-78
2023/01/06 11:34:37;;;;;;;14.47;7.37;;;4.00;99.90;;;;;;4382551;28;657578;-75
2023/01/06 11:37:32;;;;;;;10.40;5.53;;;4.40;99.90;;;;;;4418350;28;656128;-77
2023/01/06 11:40:22;;;;;;;12.00;5.70;;;4.40;99.90;;;;;;4379002;28;656581;-76
2023/01/06 11:43:12;;;;;;;9.77;4.87;;;4.60;99.90;;;;;;4378164;28;656771;-78
2023/01/06 11:46:00;;;;;;;7.40;3.60;;;4.50;99.90;;;;;;4391104;28;654981;-76
2023/01/06 11:48:48;;;;;;;7.00;4.30;;;4.50;99.90;;;;;;4400355;28;655716;-75
2023/01/06 11:51:47;;;;;;;9.20;5.00;;;4.40;99.90;;;;;;4385615;28;656109;-77
2023/01/06 11:54:36;;;;;;;9.67;4.20;;;4.60;99.90;;;;;;4404493;28;655475;-74
2023/01/06 11:57:27;;;;;;;8.17;3.73;;;4.60;99.90;;;;;;4400366;28;655486;-78
2023/01/06 12:00:36;;;;;;;7.67;3.67;;;4.50;99.90;;;;;;4392036;28;655349;-74
2023/01/06 12:03:27;;;;;;;9.27;4.43;;;4.50;99.90;;;;;;4388877;28;656123;-77
2023/01/06 12:06:20;;;;;;;7.67;4.60;;;4.90;99.90;;;;;;4393914;28;655145;-74
2023/01/06 12:09:11;;;;;;;9.40;4.80;;;5.20;99.90;;;;;;4377615;28;655780;-77
2023/01/06 12:11:59;;;;;;;7.80;4.63;;;5.40;99.90;;;;;;4391943;28;656985;-78
2023/01/06 12:14:47;;;;;;;14.60;5.37;;;6.10;99.90;;;;;;4396077;28;655439;-79
2023/01/06 12:17:38;;;;;;;8.83;4.90;;;6.60;99.90;;;;;;4386750;28;656733;-75
2023/01/06 12:20:26;;;;;;;9.17;4.70;;;7.60;99.90;;;;;;4352946;28;656575;-75
2023/01/06 12:23:16;;;;;;;9.93;4.68;;;7.80;99.90;;;;;;4395261;28;656196;-78
2023/01/06 12:26:08;;;;;;;10.18;4.90;;;7.90;99.90;;;;;;4386770;28;656225;-77
2023/01/06 12:28:55;;;;;;;11.23;5.17;;;7.70;99.90;;;;;;4364609;28;657062;-76
2023/01/06 12:31:45;;;;;;;13.27;4.83;;;7.70;99.90;;;;;;4417822;28;657089;-78
2023/01/06 12:34:35;;;;;;;8.20;4.97;;;7.80;99.90;;;;;;4376338;28;656873;-79
2023/01/06 12:37:28;;;;;;;8.93;4.93;;;8.30;99.90;;;;;;4388512;28;656117;-77
2023/01/06 12:40:27;;;;;;;10.03;5.10;;;8.90;99.90;;;;;;4363072;28;655307;-76
2023/01/06 12:43:17;;;;;;;9.83;5.13;;;9.10;99.90;;;;;;4386173;28;657127;-76
2023/01/06 12:46:06;;;;;;;9.73;4.53;;;9.20;99.90;;;;;;4379838;28;656809;-76
2023/01/06 12:48:55;;;;;;;12.07;5.20;;;8.50;99.90;;;;;;4378805;28;655378;-76
2023/01/06 12:51:44;;;;;;;12.07;5.67;;;7.50;99.90;;;;;;4372672;28;656636;-75
2023/01/06 12:54:32;;;;;;;10.97;5.70;;;7.70;99.90;;;;;;4381400;28;656882;-77
2023/01/06 12:57:25;;;;;;;10.07;5.33;;;8.10;99.90;;;;;;4404110;28;656211;-77
2023/01/06 13:00:36;;;;;;;9.43;5.30;;;8.50;99.90;;;;;;4367545;28;657358;-77
2023/01/06 13:03:47;;;;;;;10.07;5.30;;;8.90;99.90;;;;;;4379222;28;655815;-76
2023/01/06 13:06:56;;;;;;;11.67;5.77;;;9.00;99.90;;;;;;4383248;28;656814;-77
2023/01/06 13:09:52;;;;;;;14.83;7.03;;;9.30;99.90;;;;;;4383793;28;656776;-76
2023/01/06 13:12:49;;;;;;;14.47;6.50;;;8.60;99.90;;;;;;4380373;28;657073;-75
2023/01/06 13:15:39;;;;;;;11.20;6.57;;;7.90;99.90;;;;;;4386378;28;656574;-75
2023/01/06 13:18:28;;;;;;;13.37;6.33;;;7.30;99.90;;;;;;4384318;28;657049;-75
2023/01/06 13:21:16;;;;;;;14.10;5.80;;;7.20;99.90;;;;;;4410361;28;659360;-76
2023/01/06 13:24:26;;;;;;;13.00;5.93;;;6.90;99.90;;;;;;4423446;28;656932;-76
2023/01/06 13:27:37;;;;;;;13.97;6.17;;;6.60;99.90;;;;;;4399150;28;656729;-75
2023/01/06 13:30:34;;;;;;;13.43;5.63;;;6.30;99.90;;;;;;4395464;28;657317;-75
2023/01/06 13:33:33;;;;;;;11.23;5.97;;;6.00;99.90;;;;;;4374105;28;656705;-75
2023/01/06 13:36:37;;;;;;;13.27;6.37;;;5.90;99.90;;;;;;4382382;28;657068;-74
2023/01/06 13:39:24;;;;;;;14.40;5.90;;;5.80;99.90;;;;;;4400257;28;657059;-75
2023/01/06 13:42:14;;;;;;;12.83;5.93;;;5.80;99.90;;;;;;4402282;28;656967;-75
2023/01/06 13:45:02;;;;;;;13.90;6.50;;;5.70;99.90;;;;;;4389225;28;657311;-74
2023/01/06 13:47:49;;;;;;;15.13;6.40;;;5.70;99.90;;;;;;4406700;28;656034;-75
2023/01/06 13:50:38;;;;;;;17.63;8.10;;;5.60;99.90;;;;;;4400644;28;657240;-75
2023/01/06 13:53:26;;;;;;;26.90;12.57;;;5.60;99.90;;;;;;4399186;28;656928;-74
2023/01/06 13:56:32;;;;;;;38.20;16.73;;;5.50;99.90;;;;;;4412917;28;658867;-75
2023/01/06 13:59:21;;;;;;;25.80;13.33;;;5.50;99.90;;;;;;4388840;28;657466;-75
2023/01/06 14:02:14;;;;;;;32.03;13.57;;;5.40;99.90;;;;;;4386828;28;657709;-74
2023/01/06 14:05:01;;;;;;;34.83;16.60;;;5.30;99.90;;;;;;4387212;28;657622;-75
2023/01/06 14:07:51;;;;;;;39.10;16.67;;;5.20;99.90;;;;;;4404046;28;658137;-74
2023/01/06 14:10:40;;;;;;;38.20;16.30;;;5.20;99.90;;;;;;4378943;28;659197;-74
2023/01/06 14:13:29;;;;;;;65.77;26.63;;;5.10;99.90;;;;;;4378429;28;658316;-74
2023/01/06 14:16:16;;;;;;;114.70;44.60;;;5.10;99.90;;;;;;4389237;28;657753;-73
2023/01/06 14:19:05;;;;;;;108.53;43.53;;;5.00;99.90;;;;;;4404876;28;658885;-74
2023/01/06 14:21:53;;;;;;;113.97;42.00;;;4.90;99.90;;;;;;4387275;28;658196;-73
2023/01/06 14:24:43;;;;;;;80.80;31.43;;;4.80;99.90;;;;;;4393033;28;658613;-74
2023/01/06 14:28:05;;;;;;;61.73;25.53;;;4.70;99.90;;;;;;4391776;28;657934;-73
2023/01/06 14:30:53;;;;;;;53.83;23.90;;;4.70;99.90;;;;;;4356943;28;657751;-74
2023/01/06 14:33:40;;;;;;;51.60;22.97;;;4.60;99.90;;;;;;4388020;28;658163;-74
2023/01/06 14:36:28;;;;;;;49.60;23.17;;;4.70;99.90;;;;;;4406588;28;658344;-74
2023/01/06 14:39:21;;;;;;;43.87;21.87;;;4.60;99.90;;;;;;4407752;28;658073;-74
2023/01/06 14:42:18;;;;;;;56.63;25.57;;;4.60;99.90;;;;;;4386949;28;658418;-75
2023/01/06 14:45:08;;;;;;;67.73;31.63;;;4.60;99.90;;;;;;4363353;28;657720;-75
2023/01/06 14:47:57;;;;;;;70.87;31.07;;;4.60;99.90;;;;;;4386666;28;657902;-74